Lenox, Alabama
Current Conditions -  °F | °C
As of 2:18 AM on Saturday 20 Dec 2014 (Local Time) from KGZH Reporting Station
Light Rain Light Rain  
Wind Chill: 44°   Ceiling: 3800
Heat Index: 47°   Visibility: 3mi
Dew Point: 45°   Wind: 6mph
Humidity: 93%   Direction: 90°E
Pressure: 30.1"   Gusts: NA
Location:  31.34°N, 87.19°W
Report Text: KGZH 200818Z AUTO 09005KT 3SM -RA BR FEW004 SCT028 OVC038 08/07 A3010 RMK AO2 P0002 T00830072
Loading
Personal Weather Stations






























Interactive Weather Map New forecast layout! Learn more

10-Day Weather Forecast

Advertisements
Track Severe Weather on mobile